Munson Island, Florida
Current Conditions -  °F | °C
As of 2:01 AM on Sunday 23 Nov 2014 (Local Time) from KNQX Reporting Station
Scattered Clouds Scattered Clouds  
Wind Chill: 75°   Ceiling: Unl
Heat Index: 75°   Visibility: 10mi
Dew Point: 72°   Wind: 14mph
Humidity: 90%   Direction: 120°ESE
Pressure: 30"   Gusts: NA
Location:  24.5796°N, 81.6849°W
Report Text: KNQX 230701Z AUTO 12012KT 10SM FEW022 SCT029 24/22 A3000 RMK AO2 T02390222 TSNO $
Loading
Personal Weather Stations






























Interactive Weather Map New forecast layout! Learn more

10-Day Weather Forecast

Advertisements
Track Severe Weather on mobile